Time;durP1;ratioP1;P1;durP2;ratioP2;P2;SDS_P1;SDS_P2;PMS_P1;PMS_P2;Temp;Humidity;BMP_temperature;BMP_pressure;BME280_temperature;BME280_humidity;BME280_pressure;Samples;Min_cycle;Max_cycle;Signal;HPM_P1;HPM_P2
2022/01/02 00:01:37;;;;;;;8.00;3.72;;;12.40;99.90;;;;;;5084062;28;20051;-73
2022/01/02 00:04:03;;;;;;;9.57;4.32;;;12.30;99.90;;;;;;5098426;28;20044;-74
2022/01/02 00:06:32;;;;;;;8.20;4.22;;;12.30;99.90;;;;;;5111141;27;20126;-74
2022/01/02 00:09:07;;;;;;;8.85;3.78;;;12.30;99.90;;;;;;5100383;28;20048;-74
2022/01/02 00:11:37;;;;;;;9.65;4.30;;;12.30;99.90;;;;;;5060843;28;20067;-74
2022/01/02 00:14:08;;;;;;;7.68;3.70;;;12.40;99.90;;;;;;5118886;28;20036;-74
2022/01/02 00:16:38;;;;;;;9.70;4.22;;;12.40;99.90;;;;;;5111924;28;20099;-73
2022/01/02 00:19:17;;;;;;;10.30;4.25;;;12.30;99.90;;;;;;5098696;28;20407;-74
2022/01/02 00:21:45;;;;;;;9.55;4.68;;;12.30;99.90;;;;;;5083140;27;20067;-74
2022/01/02 00:24:16;;;;;;;10.10;4.32;;;12.20;99.90;;;;;;5108969;28;20055;-74
2022/01/02 00:26:45;;;;;;;8.07;4.13;;;12.20;99.90;;;;;;5078259;28;20040;-73
2022/01/02 00:29:12;;;;;;;10.43;4.63;;;12.30;99.90;;;;;;5085583;28;20411;-74
2022/01/02 00:31:42;;;;;;;10.00;4.95;;;12.20;99.90;;;;;;5124552;27;20049;-74
2022/01/02 00:34:09;;;;;;;8.38;4.43;;;12.10;99.90;;;;;;5102587;28;20050;-74
2022/01/02 00:36:35;;;;;;;9.75;3.83;;;12.10;99.90;;;;;;5084807;28;20499;-73
2022/01/02 00:39:01;;;;;;;9.45;4.47;;;12.10;99.90;;;;;;5080463;27;20067;-73
2022/01/02 00:41:51;;;;;;;9.45;4.32;;;12.10;99.90;;;;;;5101202;28;20511;-73
2022/01/02 00:44:33;;;;;;;11.43;5.13;;;12.20;99.90;;;;;;5115446;28;20064;-73
2022/01/02 00:47:07;;;;;;;10.55;4.10;;;12.20;99.90;;;;;;5114985;28;20052;-73
2022/01/02 00:49:39;;;;;;;10.27;4.28;;;12.30;99.90;;;;;;5098846;28;20108;-73
2022/01/02 00:52:10;;;;;;;8.60;4.35;;;12.20;99.90;;;;;;5114368;28;20058;-73
2022/01/02 00:54:39;;;;;;;10.60;4.68;;;12.20;99.90;;;;;;5098324;28;20074;-73
2022/01/02 00:57:08;;;;;;;11.07;4.60;;;12.20;99.90;;;;;;5114510;28;20043;-73
2022/01/02 01:00:03;;;;;;;9.68;4.03;;;12.20;99.90;;;;;;5096705;28;20082;-73
2022/01/02 01:02:34;;;;;;;7.05;3.33;;;12.20;99.90;;;;;;5081633;28;20044;-73
2022/01/02 01:05:03;;;;;;;9.45;4.40;;;12.20;99.90;;;;;;5079972;28;20546;-73
2022/01/02 01:07:32;;;;;;;11.18;4.63;;;12.20;99.90;;;;;;5115495;28;20429;-73
2022/01/02 01:09:59;;;;;;;10.13;4.50;;;12.30;99.90;;;;;;5109380;28;20048;-73
2022/01/02 01:12:25;;;;;;;9.27;3.90;;;12.20;99.90;;;;;;5077762;28;20036;-73
2022/01/02 01:14:51;;;;;;;9.15;4.30;;;12.20;99.90;;;;;;5077814;28;20040;-73
2022/01/02 01:17:17;;;;;;;9.93;3.75;;;12.30;99.90;;;;;;5094825;28;20114;-73
2022/01/02 01:19:44;;;;;;;10.43;4.03;;;12.30;99.90;;;;;;5096892;28;20109;-73
2022/01/02 01:22:10;;;;;;;12.55;4.63;;;12.20;99.90;;;;;;5114891;28;20047;-73
2022/01/02 01:24:36;;;;;;;12.18;4.47;;;12.20;99.90;;;;;;5096508;28;20385;-73
2022/01/02 01:27:07;;;;;;;9.93;4.75;;;12.20;99.90;;;;;;5109804;28;20040;-73
2022/01/02 01:29:34;;;;;;;8.55;4.18;;;12.30;99.90;;;;;;5087004;28;20040;-73
2022/01/02 01:32:08;;;;;;;8.65;4.03;;;12.30;99.90;;;;;;5077407;28;20040;-73
2022/01/02 01:34:34;;;;;;;10.27;4.47;;;12.20;99.90;;;;;;5119164;27;20048;-73
2022/01/02 01:37:00;;;;;;;12.55;5.55;;;12.30;99.90;;;;;;5149153;27;20138;-73
2022/01/02 01:39:26;;;;;;;12.00;4.75;;;12.20;99.90;;;;;;5113803;28;20045;-74
2022/01/02 01:41:54;;;;;;;10.23;4.30;;;12.10;99.90;;;;;;5148797;27;20039;-74
2022/01/02 01:44:28;;;;;;;11.52;4.70;;;12.30;99.90;;;;;;5106119;28;20081;-73
2022/01/02 01:46:55;;;;;;;9.93;4.85;;;12.20;99.90;;;;;;5077232;28;20042;-74
2022/01/02 01:49:27;;;;;;;10.80;5.00;;;12.20;99.90;;;;;;5094414;28;20494;-73
2022/01/02 01:51:53;;;;;;;13.60;5.32;;;12.20;99.90;;;;;;5093914;28;20044;-73
2022/01/02 01:54:20;;;;;;;14.60;6.07;;;12.10;99.90;;;;;;5131478;27;20053;-73
2022/01/02 01:56:47;;;;;;;10.00;5.22;;;12.10;99.90;;;;;;5114516;28;20032;-74
2022/01/02 01:59:15;;;;;;;11.48;5.18;;;12.20;99.90;;;;;;5095408;28;20040;-73
2022/01/02 02:01:41;;;;;;;11.13;4.53;;;12.20;99.90;;;;;;5114240;28;20032;-73
2022/01/02 02:04:07;;;;;;;10.73;5.00;;;12.20;99.90;;;;;;5090384;28;20044;-73
2022/01/02 02:06:35;;;;;;;13.43;5.38;;;12.20;99.90;;;;;;5076658;28;20111;-73
2022/01/02 02:09:02;;;;;;;12.45;5.18;;;12.10;99.90;;;;;;5111077;28;20040;-73
2022/01/02 02:11:29;;;;;;;11.52;4.70;;;12.10;99.90;;;;;;5113067;28;20036;-73
2022/01/02 02:13:55;;;;;;;11.60;5.20;;;12.10;99.90;;;;;;5112242;28;20093;-73
2022/01/02 02:16:22;;;;;;;12.10;5.63;;;12.20;99.90;;;;;;5094077;28;20366;-73
2022/01/02 02:18:48;;;;;;;12.90;5.20;;;12.10;99.90;;;;;;5093424;28;20488;-73
2022/01/02 02:21:13;;;;;;;12.00;5.82;;;12.10;99.90;;;;;;5129518;27;20126;-73
2022/01/02 02:23:39;;;;;;;12.00;5.38;;;12.20;99.90;;;;;;5129970;27;20036;-73
2022/01/02 02:26:05;;;;;;;10.73;4.85;;;12.20;99.90;;;;;;5112708;28;20084;-73
2022/01/02 02:28:30;;;;;;;14.35;5.82;;;12.10;99.90;;;;;;5111400;28;20044;-73
2022/01/02 02:30:56;;;;;;;10.77;4.97;;;12.10;99.90;;;;;;5077954;28;20404;-73
2022/01/02 02:33:23;;;;;;;13.18;5.90;;;12.10;99.90;;;;;;5093094;28;20043;-73
2022/01/02 02:35:49;;;;;;;12.30;5.10;;;12.10;99.90;;;;;;5095771;28;20043;-73
2022/01/02 02:38:17;;;;;;;13.13;5.35;;;12.10;99.90;;;;;;5095011;28;20040;-74
2022/01/02 02:40:43;;;;;;;13.75;6.07;;;12.10;99.90;;;;;;5075772;28;20036;-73
2022/01/02 02:51:19;;;;;;;14.20;5.15;;;12.10;99.90;;;;;;5096100;28;20475;-74
2022/01/02 02:53:47;;;;;;;14.35;5.95;;;12.10;99.90;;;;;;5095997;28;20042;-74
2022/01/02 02:56:18;;;;;;;12.40;5.20;;;12.10;99.90;;;;;;5111614;28;20539;-74
2022/01/02 02:58:44;;;;;;;12.00;5.25;;;12.10;99.90;;;;;;5095077;28;20094;-74
2022/01/02 03:01:16;;;;;;;10.80;5.43;;;12.10;99.90;;;;;;5112222;28;20047;-73
2022/01/02 03:03:42;;;;;;;12.80;5.88;;;12.10;99.90;;;;;;5096121;28;20044;-74
2022/01/02 03:06:09;;;;;;;12.25;5.43;;;12.10;99.90;;;;;;5104392;28;20169;-73
2022/01/02 03:08:36;;;;;;;11.73;5.18;;;12.10;99.90;;;;;;5102583;28;20054;-73
2022/01/02 03:11:03;;;;;;;10.00;5.22;;;12.00;99.90;;;;;;5088777;28;20044;-73
2022/01/02 03:13:29;;;;;;;10.57;5.05;;;12.00;99.90;;;;;;5092302;28;20047;-74
2022/01/02 03:15:54;;;;;;;14.43;6.03;;;12.00;99.90;;;;;;5113829;27;20391;-74
2022/01/02 03:18:20;;;;;;;11.50;5.57;;;11.90;99.90;;;;;;5147089;27;20042;-74
2022/01/02 03:20:45;;;;;;;11.35;5.55;;;12.00;99.90;;;;;;5100457;28;20432;-74
2022/01/02 03:23:11;;;;;;;14.73;5.82;;;12.00;99.90;;;;;;5109462;28;20519;-74
2022/01/02 03:25:37;;;;;;;15.80;5.32;;;12.00;99.90;;;;;;5096547;28;20032;-74
2022/01/02 03:28:03;;;;;;;12.88;5.75;;;12.00;99.90;;;;;;5092221;28;20035;-74
2022/01/02 03:30:29;;;;;;;13.48;6.68;;;12.00;99.90;;;;;;5091974;28;20086;-74
2022/01/02 03:32:54;;;;;;;13.25;5.70;;;11.90;99.90;;;;;;5102486;28;20043;-74
2022/01/02 03:35:20;;;;;;;13.10;5.95;;;12.00;99.90;;;;;;5127158;27;20044;-74
2022/01/02 03:37:45;;;;;;;11.32;5.65;;;12.00;99.90;;;;;;5117245;27;20036;-74
2022/01/02 03:40:11;;;;;;;10.75;5.43;;;12.00;99.90;;;;;;5094865;28;20031;-74
2022/01/02 03:42:37;;;;;;;10.65;5.22;;;12.00;99.90;;;;;;5111816;28;20039;-74
2022/01/02 03:45:04;;;;;;;11.32;5.65;;;12.10;99.90;;;;;;5094402;28;20085;-73
2022/01/02 03:47:30;;;;;;;15.15;6.32;;;12.00;99.90;;;;;;5142597;27;20048;-74
2022/01/02 03:49:57;;;;;;;13.48;5.78;;;12.00;99.90;;;;;;5095962;28;20036;-73
2022/01/02 03:52:26;;;;;;;13.52;4.72;;;12.00;99.90;;;;;;5131618;27;20042;-73
2022/01/02 03:54:52;;;;;;;13.10;5.00;;;12.10;99.90;;;;;;5133607;27;20043;-73
2022/01/02 03:57:18;;;;;;;9.93;5.00;;;12.10;99.90;;;;;;5098426;28;20552;-73
2022/01/02 03:59:45;;;;;;;16.25;6.20;;;12.10;99.90;;;;;;5095707;28;20035;-73
2022/01/02 04:02:10;;;;;;;12.02;4.95;;;12.10;99.90;;;;;;5091552;28;20522;-73
2022/01/02 04:04:37;;;;;;;13.40;4.50;;;12.20;99.90;;;;;;5096303;28;20036;-73
2022/01/02 04:07:03;;;;;;;13.32;4.50;;;12.20;99.90;;;;;;5104354;28;20039;-73
2022/01/02 04:09:29;;;;;;;11.40;6.10;;;12.30;99.90;;;;;;5107658;28;20078;-73
2022/01/02 04:11:54;;;;;;;9.25;3.92;;;12.20;99.90;;;;;;5093882;28;20110;-74
2022/01/02 04:14:20;;;;;;;9.77;4.82;;;12.30;99.90;;;;;;5132702;27;20591;-74
2022/01/02 04:16:45;;;;;;;12.50;5.28;;;12.10;99.90;;;;;;5122652;27;20036;-74
2022/01/02 04:19:11;;;;;;;12.75;4.35;;;12.20;99.90;;;;;;5091064;28;20114;-74
2022/01/02 04:21:36;;;;;;;11.48;4.65;;;12.20;99.90;;;;;;5087670;28;20043;-75
2022/01/02 04:24:02;;;;;;;12.30;4.28;;;12.20;99.90;;;;;;5101166;27;20108;-74
2022/01/02 04:26:28;;;;;;;15.48;4.78;;;12.20;99.90;;;;;;5105281;27;20035;-74
2022/01/02 04:28:53;;;;;;;12.75;4.70;;;12.20;99.90;;;;;;5071550;28;20057;-74
2022/01/02 04:31:19;;;;;;;13.75;4.68;;;12.20;99.90;;;;;;5118602;27;20040;-74
2022/01/02 04:33:44;;;;;;;12.50;4.60;;;12.20;99.90;;;;;;5087892;28;20055;-73
2022/01/02 04:36:10;;;;;;;13.25;4.50;;;12.20;99.90;;;;;;5088255;28;20055;-74
2022/01/02 04:38:37;;;;;;;11.23;4.40;;;12.20;99.90;;;;;;5100802;27;20043;-74
2022/01/02 04:41:03;;;;;;;11.43;3.92;;;12.20;99.90;;;;;;5095851;28;21344;-73
2022/01/02 04:43:29;;;;;;;12.98;4.95;;;12.10;99.90;;;;;;5101502;27;20567;-74
2022/01/02 04:45:56;;;;;;;11.73;4.32;;;12.20;99.90;;;;;;5093783;28;20142;-73
2022/01/02 04:48:22;;;;;;;8.85;3.60;;;12.20;99.90;;;;;;5077522;28;20148;-74
2022/01/02 04:50:48;;;;;;;14.07;5.40;;;12.30;99.90;;;;;;5100516;27;20519;-73
2022/01/02 04:53:13;;;;;;;9.55;3.58;;;12.20;99.90;;;;;;5086894;28;20036;-74
2022/01/02 04:55:39;;;;;;;9.35;4.32;;;12.20;99.90;;;;;;5068368;28;20859;-73
2022/01/02 04:58:05;;;;;;;10.95;3.30;;;12.30;99.90;;;;;;5086484;28;20035;-73
2022/01/02 05:00:31;;;;;;;13.60;5.97;;;12.30;99.90;;;;;;5073135;28;20038;-73
2022/01/02 05:02:56;;;;;;;13.82;3.90;;;12.20;99.90;;;;;;5092830;28;20036;-73
2022/01/02 05:05:22;;;;;;;15.23;4.63;;;12.20;99.90;;;;;;5087441;28;20572;-73
2022/01/02 05:07:47;;;;;;;10.75;3.95;;;12.20;99.90;;;;;;5106338;27;20530;-73
2022/01/02 05:10:13;;;;;;;11.05;4.13;;;12.20;99.90;;;;;;5091714;28;20471;-73
2022/01/02 05:12:39;;;;;;;15.10;4.70;;;12.20;99.90;;;;;;5107653;28;20461;-73
2022/01/02 05:15:05;;;;;;;8.48;3.78;;;12.20;99.90;;;;;;5112168;28;20043;-73
2022/01/02 05:17:31;;;;;;;10.60;3.97;;;12.20;99.90;;;;;;5115226;28;20437;-73
2022/01/02 05:19:56;;;;;;;12.68;4.63;;;12.30;99.90;;;;;;5106946;27;20061;-73
2022/01/02 05:22:22;;;;;;;10.65;4.35;;;12.30;99.90;;;;;;5100819;27;20400;-73
2022/01/02 05:24:48;;;;;;;9.93;3.47;;;12.20;99.90;;;;;;5117608;27;20067;-73
2022/01/02 05:27:14;;;;;;;8.38;3.30;;;12.30;99.90;;;;;;5072113;28;20043;-74
2022/01/02 05:29:39;;;;;;;11.27;4.10;;;12.40;99.90;;;;;;5094516;28;20256;-74
2022/01/02 05:32:05;;;;;;;10.95;4.28;;;12.30;99.90;;;;;;5116485;27;20035;-74
2022/01/02 05:34:31;;;;;;;12.70;3.95;;;12.40;99.90;;;;;;5101372;27;20036;-74
2022/01/02 05:36:56;;;;;;;9.38;3.60;;;12.30;99.90;;;;;;5069931;28;20036;-74
2022/01/02 05:39:23;;;;;;;10.13;3.47;;;12.40;99.90;;;;;;5086049;28;20043;-74
2022/01/02 05:41:49;;;;;;;15.88;4.00;;;12.40;99.90;;;;;;5084743;28;20039;-74
2022/01/02 05:44:17;;;;;;;11.70;4.10;;;12.50;99.90;;;;;;5084711;28;20051;-74
2022/01/02 05:46:43;;;;;;;13.50;3.92;;;12.40;99.90;;;;;;5069622;28;20520;-74
2022/01/02 05:49:10;;;;;;;14.65;3.88;;;12.40;99.90;;;;;;5084695;28;20441;-74
2022/01/02 05:51:35;;;;;;;12.07;4.10;;;12.40;99.90;;;;;;5116331;27;20039;-74
2022/01/02 05:54:01;;;;;;;10.63;3.45;;;12.40;99.90;;;;;;5075134;28;20039;-74
2022/01/02 05:56:27;;;;;;;8.70;3.42;;;12.50;99.90;;;;;;5100230;27;20438;-74
2022/01/02 05:58:52;;;;;;;9.07;3.00;;;12.50;99.90;;;;;;5084848;28;20471;-74
2022/01/02 06:01:18;;;;;;;12.57;3.28;;;12.50;99.90;;;;;;5085000;28;20487;-74
2022/01/02 06:03:43;;;;;;;11.13;3.58;;;12.50;99.90;;;;;;5068760;28;20089;-74
2022/01/02 06:06:09;;;;;;;11.98;3.50;;;12.50;99.90;;;;;;5086365;28;20658;-74
2022/01/02 06:08:34;;;;;;;10.07;3.17;;;12.50;99.90;;;;;;5099052;27;20047;-74
2022/01/02 06:11:00;;;;;;;14.27;4.15;;;12.50;99.90;;;;;;5121522;27;20538;-74
2022/01/02 06:13:25;;;;;;;13.25;4.18;;;12.50;99.90;;;;;;5086918;28;20139;-74
2022/01/02 06:15:51;;;;;;;9.32;2.92;;;12.50;99.90;;;;;;5103207;27;20103;-74
2022/01/02 06:18:17;;;;;;;7.65;3.10;;;12.50;99.90;;;;;;5105083;28;20031;-74
2022/01/02 06:20:43;;;;;;;9.63;2.58;;;12.50;99.90;;;;;;5086030;28;20166;-74
2022/01/02 06:23:08;;;;;;;11.43;3.58;;;12.50;99.90;;;;;;5086108;28;20155;-73
2022/01/02 06:25:34;;;;;;;8.20;2.75;;;12.50;99.90;;;;;;5094275;28;20039;-74
2022/01/02 06:28:00;;;;;;;11.45;3.30;;;12.60;99.90;;;;;;5118071;27;20044;-74
2022/01/02 06:30:26;;;;;;;5.38;1.77;;;12.60;99.90;;;;;;5069931;28;20035;-74
2022/01/02 06:32:55;;;;;;;16.20;2.92;;;12.60;99.90;;;;;;5120223;27;20104;-74
2022/01/02 06:35:32;;;;;;;10.55;3.60;;;12.70;99.90;;;;;;5085158;28;20688;-74
2022/01/02 06:37:59;;;;;;;10.32;2.90;;;12.60;99.90;;;;;;5079903;28;20081;-74
2022/01/02 06:40:26;;;;;;;9.30;3.42;;;12.60;99.90;;;;;;5086971;28;20077;-74
2022/01/02 06:42:52;;;;;;;9.18;3.20;;;12.60;99.90;;;;;;5102753;27;20449;-74
2022/01/02 06:45:18;;;;;;;11.60;3.42;;;12.60;99.90;;;;;;5074492;28;20135;-73
2022/01/02 06:47:44;;;;;;;9.43;2.70;;;12.60;99.90;;;;;;5115136;27;20100;-74
2022/01/02 06:50:14;;;;;;;11.18;2.25;;;12.70;99.90;;;;;;5097906;27;20051;-74
2022/01/02 06:52:40;;;;;;;6.70;2.40;;;12.70;99.90;;;;;;5085248;28;20265;-74
2022/01/02 06:55:06;;;;;;;10.85;2.30;;;12.80;99.90;;;;;;5073967;28;20035;-74
2022/01/02 06:57:31;;;;;;;10.27;3.13;;;12.80;99.90;;;;;;5084557;28;20084;-74
2022/01/02 06:59:57;;;;;;;11.80;2.53;;;12.80;99.90;;;;;;5083904;28;20492;-74
2022/01/02 07:02:22;;;;;;;7.85;2.38;;;12.80;99.90;;;;;;5091565;28;20082;-74
2022/01/02 07:04:48;;;;;;;6.75;1.75;;;12.80;99.90;;;;;;5083023;28;20032;-74
2022/01/02 07:07:14;;;;;;;7.78;1.95;;;12.80;99.90;;;;;;5085900;28;20748;-74
2022/01/02 07:09:39;;;;;;;10.05;3.00;;;12.80;99.90;;;;;;5088793;28;20441;-74
2022/01/02 07:12:06;;;;;;;8.93;2.92;;;12.80;99.90;;;;;;5102979;27;20069;-74
2022/01/02 07:14:31;;;;;;;9.18;2.30;;;12.80;99.90;;;;;;5102360;27;20131;-74
2022/01/02 07:16:58;;;;;;;6.25;2.35;;;12.90;99.90;;;;;;5108031;27;20035;-74
2022/01/02 07:19:24;;;;;;;9.43;2.53;;;12.90;99.90;;;;;;5083813;28;20044;-74
2022/01/02 07:21:50;;;;;;;7.38;1.90;;;12.90;99.90;;;;;;5131118;27;20044;-74
2022/01/02 07:24:16;;;;;;;9.20;2.35;;;12.90;99.90;;;;;;5097773;28;20054;-74
2022/01/02 07:26:42;;;;;;;7.03;2.72;;;12.90;99.90;;;;;;5087842;28;20044;-74
2022/01/02 07:29:08;;;;;;;8.13;2.30;;;12.90;99.90;;;;;;5082765;28;20049;-74
2022/01/02 07:31:34;;;;;;;6.40;2.70;;;12.90;99.90;;;;;;5089463;28;20039;-74
2022/01/02 07:34:00;;;;;;;7.50;2.35;;;12.80;99.90;;;;;;5088329;28;20051;-74
2022/01/02 07:36:25;;;;;;;8.57;2.95;;;12.80;99.90;;;;;;5076513;28;20046;-74
2022/01/02 07:38:51;;;;;;;6.90;2.33;;;12.80;99.90;;;;;;5075174;28;20457;-74
2022/01/02 07:41:17;;;;;;;8.02;2.67;;;12.80;99.90;;;;;;5133253;27;20032;-74
2022/01/02 07:43:43;;;;;;;9.38;3.17;;;12.80;99.90;;;;;;5103364;28;20097;-74
2022/01/02 07:46:08;;;;;;;7.15;2.92;;;12.70;99.90;;;;;;5119907;27;20135;-74
2022/01/02 07:48:34;;;;;;;8.68;2.95;;;12.70;99.90;;;;;;5067094;28;20044;-74
2022/01/02 07:51:00;;;;;;;10.18;2.97;;;12.70;99.90;;;;;;5091324;28;20035;-74
2022/01/02 07:53:25;;;;;;;9.13;2.45;;;12.80;99.90;;;;;;5076285;28;20050;-74
2022/01/02 07:55:51;;;;;;;10.15;2.70;;;12.70;99.90;;;;;;5114158;27;20035;-74
2022/01/02 07:58:16;;;;;;;8.93;3.33;;;12.70;99.90;;;;;;5067277;28;20093;-74
2022/01/02 08:00:43;;;;;;;7.95;2.53;;;12.70;99.90;;;;;;5084646;28;20046;-74
2022/01/02 08:03:08;;;;;;;10.30;3.50;;;12.70;99.90;;;;;;5067790;28;20055;-74
2022/01/02 08:05:34;;;;;;;5.30;2.67;;;12.70;99.90;;;;;;5079777;28;20040;-74
2022/01/02 08:08:00;;;;;;;5.50;1.73;;;12.60;99.90;;;;;;5111067;28;20096;-74
2022/01/02 08:10:27;;;;;;;8.27;2.83;;;12.70;99.90;;;;;;5146610;27;20036;-74
2022/01/02 08:12:53;;;;;;;8.57;2.80;;;12.70;99.90;;;;;;5112005;28;20039;-74
2022/01/02 08:15:20;;;;;;;8.23;2.78;;;12.70;99.90;;;;;;5090015;28;20043;-74
2022/01/02 08:17:45;;;;;;;9.55;3.00;;;12.70;99.90;;;;;;5080695;28;20036;-74
2022/01/02 08:20:12;;;;;;;10.00;3.13;;;12.60;99.90;;;;;;5140256;27;20034;-74
2022/01/02 08:22:38;;;;;;;9.00;3.42;;;12.70;99.90;;;;;;5111938;28;20031;-74
2022/01/02 08:25:05;;;;;;;3.90;2.28;;;12.60;99.90;;;;;;5094500;28;20562;-74
2022/01/02 08:27:30;;;;;;;9.60;4.43;;;12.50;99.90;;;;;;5094568;28;20189;-74
2022/01/02 08:29:56;;;;;;;8.60;2.95;;;12.60;99.90;;;;;;5110002;28;20123;-74
2022/01/02 08:32:22;;;;;;;8.40;2.97;;;12.50;99.90;;;;;;5111501;28;20032;-74
2022/01/02 08:34:48;;;;;;;8.00;2.80;;;12.50;99.90;;;;;;5111566;28;20039;-74
2022/01/02 08:37:15;;;;;;;10.43;3.30;;;12.50;99.90;;;;;;5143202;27;20038;-74
2022/01/02 08:39:42;;;;;;;11.20;3.55;;;12.50;99.90;;;;;;5089259;28;20054;-74
2022/01/02 08:42:08;;;;;;;8.20;3.20;;;12.50;99.90;;;;;;5111733;27;20046;-74
2022/01/02 08:44:34;;;;;;;9.80;3.28;;;12.50;99.90;;;;;;5091229;28;20068;-74
2022/01/02 08:47:00;;;;;;;10.68;3.63;;;12.50;99.90;;;;;;5086915;28;20043;-74
2022/01/02 08:49:26;;;;;;;8.75;2.47;;;12.50;99.90;;;;;;5114895;27;20044;-74
2022/01/02 08:51:53;;;;;;;7.15;2.95;;;12.40;99.90;;;;;;5111854;28;20074;-74
2022/01/02 08:54:19;;;;;;;10.90;3.05;;;12.50;99.90;;;;;;5098029;28;20027;-74
2022/01/02 08:56:44;;;;;;;8.50;2.47;;;12.50;99.90;;;;;;5096542;28;20042;-74
2022/01/02 08:59:10;;;;;;;8.07;3.70;;;12.40;99.90;;;;;;5095604;28;20043;-74
2022/01/02 09:01:35;;;;;;;10.82;3.35;;;12.40;99.90;;;;;;5094437;28;20043;-74
2022/01/02 09:04:01;;;;;;;7.15;3.28;;;12.30;99.90;;;;;;5094790;28;20040;-74
2022/01/02 09:06:26;;;;;;;8.27;2.95;;;12.30;99.90;;;;;;5097598;28;20039;-74
2022/01/02 09:08:53;;;;;;;7.82;3.17;;;12.40;99.90;;;;;;5098138;28;20518;-74
2022/01/02 09:11:18;;;;;;;8.00;2.78;;;12.40;99.90;;;;;;5097811;28;20172;-74
2022/01/02 09:13:44;;;;;;;9.60;3.08;;;12.30;99.90;;;;;;5098158;28;20126;-74
2022/01/02 09:16:09;;;;;;;8.48;3.05;;;12.30;99.90;;;;;;5138386;27;20036;-74
2022/01/02 09:18:35;;;;;;;6.75;2.50;;;12.30;99.90;;;;;;5114867;28;20042;-73
2022/01/02 09:21:00;;;;;;;7.25;2.88;;;12.30;99.90;;;;;;5097618;28;20054;-73
2022/01/02 09:23:26;;;;;;;8.18;2.80;;;12.20;99.90;;;;;;5112518;27;20081;-73
2022/01/02 09:25:52;;;;;;;6.78;2.53;;;12.30;99.90;;;;;;5111312;27;20081;-74
2022/01/02 09:28:17;;;;;;;9.32;3.58;;;12.30;99.90;;;;;;5097101;28;20495;-74
2022/01/02 09:30:43;;;;;;;8.13;3.60;;;12.30;99.90;;;;;;5097541;28;20100;-74
2022/01/02 09:33:08;;;;;;;7.15;3.00;;;12.30;99.90;;;;;;5114761;28;20119;-74
2022/01/02 09:35:40;;;;;;;8.48;3.00;;;12.30;99.90;;;;;;5129690;27;20044;-74
2022/01/02 09:38:07;;;;;;;7.20;2.80;;;12.30;99.90;;;;;;5093935;28;20032;-74
2022/01/02 09:40:33;;;;;;;11.25;3.10;;;12.30;99.90;;;;;;5077314;28;20492;-74
2022/01/02 09:42:59;;;;;;;8.52;3.35;;;12.30;99.90;;;;;;5094091;28;20047;-74
2022/01/02 09:45:26;;;;;;;9.23;2.75;;;12.30;99.90;;;;;;5093595;28;20052;-74
2022/01/02 09:47:52;;;;;;;6.38;2.42;;;12.30;99.90;;;;;;5093410;28;20072;-74
2022/01/02 09:50:18;;;;;;;8.25;3.08;;;12.40;99.90;;;;;;5110959;28;20090;-74
2022/01/02 09:52:49;;;;;;;7.88;2.80;;;12.40;99.90;;;;;;5110551;28;20048;-74
2022/01/02 09:55:15;;;;;;;5.63;2.22;;;12.40;99.90;;;;;;5076561;28;20044;-74
2022/01/02 09:57:45;;;;;;;8.63;2.85;;;12.50;99.90;;;;;;5110691;28;20456;-74
2022/01/02 10:00:12;;;;;;;7.18;3.30;;;12.50;99.90;;;;;;5148136;27;20063;-74
2022/01/02 10:02:58;;;;;;;9.10;3.13;;;12.50;99.90;;;;;;5107255;28;20158;-74
2022/01/02 10:05:26;;;;;;;8.68;4.13;;;12.60;99.90;;;;;;5114187;28;20050;-74
2022/01/02 10:07:54;;;;;;;9.55;4.00;;;12.60;99.90;;;;;;5113828;28;20403;-74
2022/01/02 10:10:21;;;;;;;6.00;2.75;;;12.60;99.90;;;;;;5113694;28;20073;-74
2022/01/02 10:12:47;;;;;;;6.65;2.67;;;12.60;99.90;;;;;;5096965;28;20039;-74
2022/01/02 10:15:14;;;;;;;7.68;3.28;;;12.60;99.90;;;;;;5096390;28;20468;-74
2022/01/02 10:18:08;;;;;;;7.68;3.72;;;12.70;99.90;;;;;;5113695;28;20036;-74
2022/01/02 10:20:39;;;;;;;7.05;3.78;;;12.60;99.90;;;;;;5096282;28;20077;-74
2022/01/02 10:23:19;;;;;;;6.75;2.85;;;12.60;99.90;;;;;;5096444;28;20043;-74
2022/01/02 10:26:00;;;;;;;8.05;3.05;;;12.70;99.90;;;;;;5110748;28;20051;-74
2022/01/02 10:28:28;;;;;;;8.07;3.08;;;12.70;99.90;;;;;;5093324;28;20039;-74
2022/01/02 10:31:00;;;;;;;8.82;2.65;;;12.70;99.90;;;;;;5148052;27;20126;-74
2022/01/02 10:33:27;;;;;;;7.15;2.95;;;12.70;99.90;;;;;;5113223;28;20051;-74
2022/01/02 10:36:01;;;;;;;9.32;3.40;;;12.70;99.90;;;;;;5113151;28;20518;-74
2022/01/02 10:38:30;;;;;;;7.45;3.05;;;12.60;99.90;;;;;;5113444;28;20041;-74
2022/01/02 10:40:56;;;;;;;6.25;3.33;;;12.60;99.90;;;;;;5096092;28;20537;-74
2022/01/02 10:43:30;;;;;;;10.13;3.92;;;12.70;99.90;;;;;;5124267;27;20027;-74
2022/01/02 10:45:58;;;;;;;13.05;4.85;;;12.50;99.90;;;;;;5083362;28;20052;-74
2022/01/02 10:48:40;;;;;;;9.25;4.55;;;12.60;99.90;;;;;;5096071;28;20054;-74
2022/01/02 10:51:16;;;;;;;8.90;3.92;;;12.50;99.90;;;;;;5113320;28;20043;-74
2022/01/02 10:53:57;;;;;;;8.80;4.47;;;12.60;99.90;;;;;;5113199;28;20036;-74
2022/01/02 10:56:26;;;;;;;9.85;4.18;;;12.60;99.90;;;;;;5105316;28;20035;-74
2022/01/02 10:58:52;;;;;;;9.95;4.03;;;12.60;99.90;;;;;;5112106;28;20074;-73
2022/01/02 11:01:20;;;;;;;6.55;3.20;;;12.60;99.90;;;;;;5107701;28;20036;-74
2022/01/02 11:03:47;;;;;;;14.50;5.03;;;12.60;99.90;;;;;;5093547;28;20114;-74
2022/01/02 11:06:26;;;;;;;8.10;2.95;;;12.60;99.90;;;;;;5093924;28;20078;-74
2022/01/02 11:08:57;;;;;;;4.88;2.85;;;12.60;99.90;;;;;;5095636;28;20430;-74
2022/01/02 11:11:23;;;;;;;6.63;3.33;;;12.70;99.90;;;;;;5112841;28;20456;-74
2022/01/02 11:13:50;;;;;;;11.52;3.95;;;12.70;99.90;;;;;;5095364;28;20123;-74
2022/01/02 11:16:16;;;;;;;9.82;4.15;;;12.70;99.90;;;;;;5091586;28;20071;-74
2022/01/02 11:18:42;;;;;;;11.02;3.88;;;12.70;99.90;;;;;;5112400;28;20028;-74
2022/01/02 11:21:10;;;;;;;13.05;3.97;;;12.50;99.90;;;;;;5106307;28;20093;-74
2022/01/02 11:23:55;;;;;;;10.63;3.30;;;12.60;99.90;;;;;;5095217;28;20542;-74
2022/01/02 11:26:42;;;;;;;12.38;4.57;;;12.50;99.90;;;;;;5094294;28;20031;-74
2022/01/02 11:29:07;;;;;;;7.20;2.88;;;12.50;99.90;;;;;;5132367;27;20097;-74
2022/01/02 11:31:37;;;;;;;9.38;3.63;;;12.60;99.90;;;;;;5109440;28;20072;-74
2022/01/02 11:34:21;;;;;;;10.52;4.20;;;12.70;99.90;;;;;;5112851;28;20094;-74
2022/01/02 11:36:47;;;;;;;9.77;4.57;;;12.50;99.90;;;;;;5112617;28;20039;-74
2022/01/02 11:39:13;;;;;;;9.43;3.80;;;12.50;99.90;;;;;;5095059;28;20396;-74
2022/01/02 11:41:48;;;;;;;10.23;3.35;;;12.60;99.90;;;;;;5112010;28;20081;-74
2022/01/02 11:44:16;;;;;;;8.70;4.70;;;12.60;99.90;;;;;;5111595;28;20126;-74
2022/01/02 11:46:53;;;;;;;8.23;3.42;;;12.50;99.90;;;;;;5101036;28;20044;-74
2022/01/02 11:49:26;;;;;;;10.27;3.58;;;12.50;99.90;;;;;;5108974;28;20094;-74
2022/01/02 11:51:54;;;;;;;9.35;3.42;;;12.50;99.90;;;;;;5125763;28;20047;-74
2022/01/02 11:54:32;;;;;;;11.02;4.93;;;12.60;99.90;;;;;;5125802;28;20462;-74
2022/01/02 11:57:00;;;;;;;8.93;3.63;;;12.40;99.90;;;;;;5108937;28;20047;-74
2022/01/02 11:59:44;;;;;;;11.02;3.28;;;12.60;99.90;;;;;;5108409;28;20071;-74
2022/01/02 12:02:12;;;;;;;7.45;3.33;;;12.70;99.90;;;;;;5108408;28;20071;-74
2022/01/02 12:07:34;;;;;;;7.05;3.03;;;12.40;99.90;;;;;;5091612;28;20130;-74
2022/01/02 12:10:21;;;;;;;7.18;2.30;;;12.40;99.90;;;;;;5108697;28;20485;-74
2022/01/02 12:12:59;;;;;;;10.32;3.33;;;12.60;99.90;;;;;;5095432;28;20044;-74
2022/01/02 12:15:30;;;;;;;8.45;3.60;;;12.50;99.90;;;;;;5095218;28;20126;-74
2022/01/02 12:18:24;;;;;;;13.32;3.50;;;12.40;99.90;;;;;;5139514;27;20036;-74
2022/01/02 12:20:50;;;;;;;13.13;3.17;;;12.30;99.90;;;;;;5084559;28;20043;-73
2022/01/02 12:23:30;;;;;;;7.35;2.45;;;12.50;99.90;;;;;;5116068;28;20051;-74
2022/01/02 12:26:18;;;;;;;8.52;2.40;;;12.50;99.90;;;;;;5099058;28;20097;-74
2022/01/02 12:29:01;;;;;;;9.05;2.60;;;12.30;99.90;;;;;;5098531;28;20555;-74
2022/01/02 12:31:35;;;;;;;12.77;2.70;;;12.20;99.90;;;;;;5099296;28;20443;-74
2022/01/02 12:34:17;;;;;;;8.27;2.53;;;12.30;99.90;;;;;;5098286;28;20543;-74
2022/01/02 12:36:44;;;;;;;11.63;2.80;;;12.40;99.90;;;;;;5115169;28;20496;-74
2022/01/02 12:39:16;;;;;;;7.65;2.20;;;12.50;99.90;;;;;;5098776;28;20039;-73
2022/01/02 12:41:44;;;;;;;15.25;2.78;;;12.40;99.90;;;;;;5115454;28;20044;-73
2022/01/02 12:44:15;;;;;;;14.45;3.17;;;12.20;99.90;;;;;;5113983;28;20081;-73
2022/01/02 12:46:52;;;;;;;15.55;3.47;;;12.20;99.90;;;;;;5111587;28;20377;-74
2022/01/02 12:49:32;;;;;;;11.00;2.70;;;12.10;99.90;;;;;;5094805;28;20032;-74
2022/01/02 12:52:04;;;;;;;10.32;2.70;;;12.00;99.90;;;;;;5103110;28;20479;-73
2022/01/02 12:54:32;;;;;;;14.20;3.78;;;12.10;99.90;;;;;;5115183;28;20039;-73
2022/01/02 12:57:00;;;;;;;11.13;2.47;;;12.00;99.90;;;;;;5098518;28;20032;-73